createdAt,value
2023-04-27T00:00:16.394Z,6.32
2023-04-27T00:03:18.065Z,6.37
2023-04-27T00:06:19.722Z,6.33
2023-04-27T00:09:21.576Z,6.32
2023-04-27T00:12:23.350Z,6.31
2023-04-27T00:15:24.932Z,6.25
2023-04-27T00:18:26.271Z,6.27
2023-04-27T00:21:27.691Z,6.22
2023-04-27T00:24:29.039Z,6.26
2023-04-27T00:27:30.424Z,6.38
2023-04-27T00:30:31.791Z,6.34
2023-04-27T00:33:33.164Z,6.32
2023-04-27T00:36:35.206Z,6.24
2023-04-27T00:39:36.574Z,6.19
2023-04-27T00:42:38.441Z,6.32
2023-04-27T00:45:45.667Z,6.28
2023-04-27T00:48:47.359Z,6.29
2023-04-27T00:51:48.806Z,6.28
2023-04-27T00:54:51.807Z,6.25
2023-04-27T00:57:53.258Z,6.23
2023-04-27T01:00:54.905Z,6.18
2023-04-27T01:03:56.642Z,6.12
2023-04-27T01:06:58.299Z,6.13
2023-04-27T01:10:00.277Z,6.10
2023-04-27T01:13:01.809Z,6.15
2023-04-27T01:16:03.248Z,6.16
2023-04-27T01:19:05.056Z,6.15
2023-04-27T01:22:07.102Z,6.12
2023-04-27T01:25:08.827Z,6.12
2023-04-27T01:28:10.264Z,6.07
2023-04-27T01:31:11.939Z,6.08
2023-04-27T01:34:13.333Z,5.98
2023-04-27T01:37:15.718Z,6.00
2023-04-27T01:40:17.195Z,6.02
2023-04-27T01:43:18.543Z,5.99
2023-04-27T01:46:20.581Z,6.00
2023-04-27T01:49:21.998Z,5.94
2023-04-27T01:52:23.360Z,5.98
2023-04-27T01:55:25.156Z,5.96
2023-04-27T01:58:26.961Z,5.83
2023-04-27T02:01:28.357Z,5.86
2023-04-27T02:04:29.882Z,5.90
2023-04-27T02:07:31.347Z,5.81
2023-04-27T02:10:32.742Z,5.83
2023-04-27T02:13:34.118Z,5.73
2023-04-27T02:16:35.813Z,5.64
2023-04-27T02:19:37.240Z,5.63
2023-04-27T02:22:43.705Z,5.64
2023-04-27T02:25:46.798Z,5.68
2023-04-27T02:28:48.414Z,5.76
2023-04-27T02:31:50.322Z,5.79
2023-04-27T02:34:51.730Z,5.72
2023-04-27T02:37:53.096Z,5.71
2023-04-27T02:40:55.085Z,5.67
2023-04-27T02:43:56.478Z,5.65
2023-04-27T02:46:57.880Z,5.66
2023-04-27T02:49:59.811Z,5.65
2023-04-27T02:53:01.274Z,5.57
2023-04-27T02:56:02.957Z,5.55
2023-04-27T02:59:04.317Z,5.53
2023-04-27T03:02:05.676Z,5.55
2023-04-27T03:05:07.317Z,5.50
2023-04-27T03:08:08.676Z,5.50
2023-04-27T03:11:10.055Z,5.37
2023-04-27T03:14:12.717Z,5.33
2023-04-27T03:17:14.053Z,5.33
2023-04-27T03:20:15.420Z,5.41
2023-04-27T03:23:16.790Z,5.53
2023-04-27T03:26:18.808Z,5.47
2023-04-27T03:29:20.193Z,5.52
2023-04-27T03:32:21.701Z,5.50
2023-04-27T03:35:23.083Z,5.62
2023-04-27T03:38:25.298Z,5.59
2023-04-27T03:41:26.680Z,5.49
2023-04-27T03:44:28.114Z,5.48
2023-04-27T03:47:29.544Z,5.52
2023-04-27T03:50:30.927Z,5.52
2023-04-27T03:53:32.294Z,5.45
2023-04-27T03:56:34.161Z,5.37
2023-04-27T03:59:35.532Z,5.27
2023-04-27T04:02:37.051Z,5.27
2023-04-27T04:05:38.522Z,5.25
2023-04-27T04:08:39.887Z,5.24
2023-04-27T04:11:41.221Z,5.18
2023-04-27T04:14:42.893Z,5.22
2023-04-27T04:17:44.363Z,5.17
2023-04-27T04:20:45.818Z,5.08
2023-04-27T04:23:47.211Z,5.06
2023-04-27T04:26:48.605Z,5.15
2023-04-27T04:29:50.526Z,5.23
2023-04-27T04:32:52.124Z,5.26
2023-04-27T04:35:54.348Z,5.18
2023-04-27T04:38:57.103Z,5.20
2023-04-27T04:41:58.818Z,5.21
2023-04-27T04:45:00.157Z,5.18
2023-04-27T04:48:02.054Z,5.15
2023-04-27T04:51:06.663Z,5.02
2023-04-27T04:54:08.003Z,5.13
2023-04-27T04:57:09.363Z,5.17
2023-04-27T05:00:12.716Z,5.18
2023-04-27T05:03:14.236Z,5.20
2023-04-27T05:06:15.662Z,5.19
2023-04-27T05:09:17.086Z,5.28
2023-04-27T05:12:18.444Z,5.26
2023-04-27T05:15:19.860Z,5.28
2023-04-27T05:18:21.367Z,5.30
2023-04-27T05:21:22.809Z,5.35
2023-04-27T05:24:25.332Z,5.24
2023-04-27T05:27:26.742Z,5.36
2023-04-27T05:30:28.229Z,5.46
2023-04-27T05:33:29.607Z,5.38
2023-04-27T05:36:31.117Z,5.46
2023-04-27T05:39:32.880Z,5.48
2023-04-27T05:42:34.240Z,5.47
2023-04-27T05:45:39.326Z,5.54
2023-04-27T05:48:41.194Z,5.58
2023-04-27T05:51:42.561Z,5.43
2023-04-27T05:54:50.336Z,5.53
2023-04-27T05:58:00.730Z,5.53
2023-04-27T06:01:08.909Z,5.61
2023-04-27T06:04:10.600Z,5.66
2023-04-27T06:07:13.824Z,5.61
2023-04-27T06:10:16.372Z,5.60
2023-04-27T06:13:18.348Z,5.81
2023-04-27T06:16:20.830Z,5.74
2023-04-27T06:19:22.506Z,5.87
2023-04-27T06:22:23.856Z,5.85
2023-04-27T06:25:27.328Z,5.92
2023-04-27T06:28:28.778Z,5.87
2023-04-27T06:31:30.833Z,6.02
2023-04-27T06:34:36.152Z,6.07
2023-04-27T06:37:37.572Z,6.11
2023-04-27T06:40:39.135Z,6.22
2023-04-27T06:43:40.478Z,6.20
2023-04-27T06:46:41.891Z,6.51
2023-04-27T06:49:43.265Z,6.51
2023-04-27T06:52:44.688Z,6.43
2023-04-27T06:55:48.377Z,6.62
2023-04-27T06:58:50.097Z,6.75
2023-04-27T07:01:51.659Z,6.83
2023-04-27T07:04:53.201Z,6.85
2023-04-27T07:07:54.618Z,7.06
2023-04-27T07:10:56.187Z,7.16
2023-04-27T07:13:57.549Z,7.08
2023-04-27T07:16:58.909Z,7.01
2023-04-27T07:20:01.944Z,6.89
2023-04-27T07:23:03.945Z,6.80
2023-04-27T07:26:05.773Z,7.16
2023-04-27T07:29:18.943Z,7.39
2023-04-27T07:32:27.482Z,7.36
2023-04-27T07:35:29.130Z,7.66
2023-04-27T07:38:31.228Z,7.66
2023-04-27T07:41:34.629Z,7.50
2023-04-27T07:44:36.362Z,7.94
2023-04-27T07:47:39.009Z,8.16
2023-04-27T07:50:40.790Z,8.26
2023-04-27T07:53:42.180Z,8.13
2023-04-27T07:56:43.578Z,8.33
2023-04-27T07:59:45.750Z,8.23
2023-04-27T08:02:47.417Z,8.45
2023-04-27T08:05:49.131Z,8.63
2023-04-27T08:08:50.799Z,8.72
2023-04-27T08:11:52.163Z,8.03
2023-04-27T08:14:53.709Z,8.47
2023-04-27T08:17:55.192Z,8.48
2023-04-27T08:20:56.666Z,8.60
2023-04-27T08:23:58.059Z,8.82
2023-04-27T08:26:59.486Z,8.98
2023-04-27T08:30:01.622Z,9.28
2023-04-27T08:33:03.011Z,9.06
2023-04-27T08:36:04.751Z,9.43
2023-04-27T08:39:07.758Z,9.34
2023-04-27T08:42:13.733Z,9.61
2023-04-27T08:45:15.842Z,9.63
2023-04-27T08:48:17.392Z,9.84
2023-04-27T08:51:20.081Z,9.88
2023-04-27T08:54:21.966Z,10.12
2023-04-27T08:57:23.333Z,10.37
2023-04-27T09:00:26.212Z,10.35
2023-04-27T09:03:27.697Z,10.50
2023-04-27T09:06:33.842Z,10.31
2023-04-27T09:09:35.699Z,10.63
2023-04-27T09:12:37.079Z,10.62
2023-04-27T09:15:48.528Z,10.84
2023-04-27T09:18:50.633Z,10.62
2023-04-27T09:22:03.368Z,10.57
2023-04-27T09:25:04.982Z,10.85
2023-04-27T09:28:07.953Z,10.45
2023-04-27T09:31:09.588Z,10.91
2023-04-27T09:34:11.178Z,11.00
2023-04-27T09:37:14.152Z,11.08
2023-04-27T09:40:15.606Z,11.26
2023-04-27T09:43:17.257Z,11.34
2023-04-27T09:46:19.658Z,11.58
2023-04-27T09:49:23.120Z,11.37
2023-04-27T09:52:24.614Z,11.42
2023-04-27T09:55:32.440Z,11.59
2023-04-27T09:59:07.609Z,11.30
2023-04-27T10:02:24.250Z,11.18
2023-04-27T10:05:50.105Z,11.62
2023-04-27T10:08:51.658Z,11.74
2023-04-27T10:11:54.287Z,11.96
2023-04-27T10:14:58.043Z,12.06
2023-04-27T10:18:04.997Z,11.75
2023-04-27T10:21:10.743Z,11.88
2023-04-27T10:24:12.178Z,11.85
2023-04-27T10:27:18.572Z,12.07
2023-04-27T10:30:21.647Z,12.40
2023-04-27T10:33:23.348Z,12.44
2023-04-27T10:36:34.730Z,12.52
2023-04-27T10:39:47.854Z,12.64
2023-04-27T10:42:50.914Z,12.27
2023-04-27T10:45:52.733Z,12.88
2023-04-27T10:48:55.355Z,13.14
2023-04-27T10:52:02.744Z,13.32
2023-04-27T10:55:21.472Z,13.02
2023-04-27T10:58:23.868Z,13.26
2023-04-27T11:01:26.865Z,13.45
2023-04-27T11:04:40.300Z,12.98
2023-04-27T11:07:41.771Z,13.29
2023-04-27T11:10:50.234Z,12.50
2023-04-27T11:13:55.662Z,12.94
2023-04-27T11:16:57.354Z,13.19
2023-04-27T11:19:58.751Z,13.49
2023-04-27T11:23:00.143Z,13.26
2023-04-27T11:26:09.886Z,13.37
2023-04-27T11:29:14.062Z,14.04
2023-04-27T11:32:23.254Z,14.32
2023-04-27T11:35:34.561Z,14.34
2023-04-27T11:38:36.098Z,14.03
2023-04-27T11:41:37.796Z,13.94
2023-04-27T11:44:40.451Z,13.91
2023-04-27T11:47:46.511Z,14.19
2023-04-27T11:50:48.509Z,14.28
2023-04-27T11:53:51.206Z,14.56
2023-04-27T11:56:52.567Z,14.55
2023-04-27T11:59:54.433Z,14.74
2023-04-27T12:02:56.063Z,14.29
2023-04-27T12:06:04.158Z,14.62
2023-04-27T12:09:16.035Z,14.09
2023-04-27T12:12:22.294Z,13.61
2023-04-27T12:15:23.678Z,13.85
2023-04-27T12:18:25.025Z,13.64
2023-04-27T12:21:26.386Z,13.59
2023-04-27T12:24:27.779Z,13.67
2023-04-27T12:27:29.175Z,13.64
2023-04-27T12:30:30.519Z,13.52
2023-04-27T12:33:32.204Z,13.82
2023-04-27T12:36:33.821Z,14.11
2023-04-27T12:39:35.180Z,14.36
2023-04-27T12:42:36.615Z,14.19
2023-04-27T12:45:38.216Z,14.23
2023-04-27T12:48:39.654Z,14.41
2023-04-27T12:51:41.340Z,14.56
2023-04-27T12:54:42.796Z,14.91
2023-04-27T12:57:44.295Z,15.05
2023-04-27T13:00:46.366Z,15.02
2023-04-27T13:03:48.222Z,15.05
2023-04-27T13:06:49.737Z,14.85
2023-04-27T13:09:51.101Z,14.61
2023-04-27T13:12:52.463Z,14.36
2023-04-27T13:15:53.868Z,14.30
2023-04-27T13:18:55.528Z,14.45
2023-04-27T13:21:56.992Z,14.50
2023-04-27T13:24:58.336Z,14.51
2023-04-27T13:27:59.696Z,14.28
2023-04-27T13:31:01.146Z,14.23
2023-04-27T13:34:04.603Z,14.69
2023-04-27T13:37:06.697Z,15.23
2023-04-27T13:40:12.564Z,15.09
2023-04-27T13:43:13.989Z,15.19
2023-04-27T13:46:15.473Z,14.91
2023-04-27T13:49:16.907Z,14.94
2023-04-27T13:52:18.314Z,15.13
2023-04-27T13:55:19.689Z,14.98
2023-04-27T13:58:21.951Z,15.12
2023-04-27T14:01:24.188Z,15.42
2023-04-27T14:04:25.793Z,15.39
2023-04-27T14:07:27.389Z,15.63
2023-04-27T14:10:29.956Z,15.59
2023-04-27T14:13:31.486Z,14.99
2023-04-27T14:16:32.963Z,15.04
2023-04-27T14:19:34.330Z,15.39
2023-04-27T14:22:36.132Z,15.44
2023-04-27T14:25:38.679Z,15.17
2023-04-27T14:28:40.605Z,15.28
2023-04-27T14:31:42.046Z,14.84
2023-04-27T14:34:43.904Z,14.90
2023-04-27T14:37:45.466Z,14.63
2023-04-27T14:40:46.825Z,14.67
2023-04-27T14:43:48.820Z,15.05
2023-04-27T14:46:50.211Z,14.92
2023-04-27T14:49:51.694Z,15.40
2023-04-27T14:52:57.815Z,15.65
2023-04-27T14:55:59.308Z,15.69
2023-04-27T14:59:00.739Z,15.71
2023-04-27T15:02:02.315Z,15.15
2023-04-27T15:05:04.072Z,14.90
2023-04-27T15:08:05.711Z,14.94
2023-04-27T15:11:07.067Z,15.52
2023-04-27T15:14:08.724Z,15.29
2023-04-27T15:17:10.109Z,15.80
2023-04-27T15:20:13.811Z,16.08
2023-04-27T15:23:18.117Z,16.14
2023-04-27T15:26:19.717Z,15.98
2023-04-27T15:29:21.267Z,16.27
2023-04-27T15:32:24.531Z,15.62
2023-04-27T15:35:26.260Z,16.38
2023-04-27T15:38:27.648Z,16.32
2023-04-27T15:41:29.077Z,16.17
2023-04-27T15:44:30.583Z,16.10
2023-04-27T15:47:32.033Z,15.71
2023-04-27T15:50:33.449Z,15.75
2023-04-27T15:53:34.792Z,16.08
2023-04-27T15:56:36.252Z,16.20
2023-04-27T15:59:37.600Z,16.15
2023-04-27T16:02:40.380Z,15.71
2023-04-27T16:05:42.078Z,15.82
2023-04-27T16:08:43.452Z,16.08
2023-04-27T16:11:45.014Z,15.94
2023-04-27T16:14:46.628Z,16.15
2023-04-27T16:17:48.014Z,16.14
2023-04-27T16:20:49.505Z,16.17
2023-04-27T16:23:50.873Z,16.37
2023-04-27T16:26:52.292Z,16.26
2023-04-27T16:29:53.632Z,16.06
2023-04-27T16:32:55.699Z,16.16
2023-04-27T16:35:57.249Z,15.92
2023-04-27T16:38:58.732Z,16.15
2023-04-27T16:42:00.267Z,16.36
2023-04-27T16:45:02.211Z,16.33
2023-04-27T16:48:03.717Z,15.87
2023-04-27T16:51:05.143Z,16.09
2023-04-27T16:54:06.759Z,16.05
2023-04-27T16:57:08.299Z,15.92
2023-04-27T17:00:10.202Z,15.91
2023-04-27T17:03:11.958Z,15.99
2023-04-27T17:06:13.452Z,16.11
2023-04-27T17:09:15.191Z,15.69
2023-04-27T17:12:17.297Z,15.76
2023-04-27T17:15:18.859Z,15.92
2023-04-27T17:18:20.910Z,15.71
2023-04-27T17:21:24.851Z,15.87
2023-04-27T17:24:26.300Z,15.66
2023-04-27T17:27:27.765Z,15.64
2023-04-27T17:30:29.166Z,15.91
2023-04-27T17:33:30.561Z,15.82
2023-04-27T17:36:32.780Z,16.01
2023-04-27T17:39:34.496Z,15.94
2023-04-27T17:42:35.998Z,15.95
2023-04-27T17:45:37.399Z,15.91
2023-04-27T17:48:38.800Z,15.87
2023-04-27T17:51:40.576Z,15.84
2023-04-27T17:54:42.545Z,15.82
2023-04-27T17:57:43.968Z,15.64
2023-04-27T18:00:45.414Z,15.62
2023-04-27T18:03:46.844Z,15.49
2023-04-27T18:06:48.354Z,15.38
2023-04-27T18:09:50.385Z,15.33
2023-04-27T18:12:51.745Z,15.33
2023-04-27T18:15:53.116Z,15.26
2023-04-27T18:18:54.483Z,15.17
2023-04-27T18:21:56.323Z,15.00
2023-04-27T18:24:57.687Z,14.94
2023-04-27T18:27:59.045Z,14.94
2023-04-27T18:31:00.647Z,14.89
2023-04-27T18:34:02.021Z,14.88
2023-04-27T18:37:03.520Z,14.76
2023-04-27T18:40:05.873Z,14.56
2023-04-27T18:43:07.797Z,14.50
2023-04-27T18:46:09.173Z,14.43
2023-04-27T18:49:10.628Z,14.31
2023-04-27T18:52:12.165Z,14.22
2023-04-27T18:55:17.579Z,14.05
2023-04-27T18:58:18.919Z,13.78
2023-04-27T19:01:25.693Z,13.76
2023-04-27T19:04:27.348Z,13.74
2023-04-27T19:07:28.822Z,13.72
2023-04-27T19:10:30.957Z,13.66
2023-04-27T19:13:32.552Z,13.60
2023-04-27T19:16:34.053Z,13.56
2023-04-27T19:19:35.424Z,13.39
2023-04-27T19:22:36.976Z,13.34
2023-04-27T19:25:38.400Z,13.25
2023-04-27T19:28:39.775Z,13.23
2023-04-27T19:31:41.323Z,13.17
2023-04-27T19:34:42.819Z,13.16
2023-04-27T19:37:44.197Z,13.07
2023-04-27T19:40:47.568Z,13.03
2023-04-27T19:43:49.428Z,12.87
2023-04-27T19:46:50.871Z,12.83
2023-04-27T19:49:52.291Z,12.82
2023-04-27T19:52:53.649Z,12.77
2023-04-27T19:55:55.049Z,12.72
2023-04-27T19:58:56.479Z,12.70
2023-04-27T20:01:57.906Z,12.61
2023-04-27T20:04:59.706Z,12.53
2023-04-27T20:08:01.438Z,12.44
2023-04-27T20:11:02.778Z,12.12
2023-04-27T20:14:04.166Z,12.07
2023-04-27T20:17:06.464Z,12.19
2023-04-27T20:20:10.562Z,12.10
2023-04-27T20:23:11.903Z,12.00
2023-04-27T20:26:13.380Z,12.03
2023-04-27T20:29:14.783Z,12.09
2023-04-27T20:32:16.230Z,12.08
2023-04-27T20:35:17.631Z,12.03
2023-04-27T20:38:20.376Z,11.65
2023-04-27T20:41:21.874Z,11.90
2023-04-27T20:44:23.362Z,11.90
2023-04-27T20:47:24.876Z,11.84
2023-04-27T20:50:26.425Z,11.85
2023-04-27T20:53:28.020Z,11.77
2023-04-27T20:56:32.885Z,11.77
2023-04-27T20:59:34.252Z,11.69
2023-04-27T21:02:36.293Z,11.51
2023-04-27T21:05:37.750Z,11.41
2023-04-27T21:08:39.102Z,11.32
2023-04-27T21:11:40.640Z,11.34
2023-04-27T21:14:41.964Z,11.25
2023-04-27T21:17:43.376Z,11.32
2023-04-27T21:20:44.750Z,11.28
2023-04-27T21:23:48.125Z,11.11
2023-04-27T21:26:51.164Z,10.99
2023-04-27T21:29:53.232Z,11.08
2023-04-27T21:32:54.678Z,11.07
2023-04-27T21:35:56.085Z,11.02
2023-04-27T21:38:57.611Z,10.97
2023-04-27T21:41:58.977Z,10.79
2023-04-27T21:45:00.900Z,10.86
2023-04-27T21:48:02.304Z,10.81
2023-04-27T21:51:03.731Z,10.77
2023-04-27T21:54:05.280Z,10.83
2023-04-27T21:57:06.632Z,10.79
2023-04-27T22:00:18.739Z,10.79
2023-04-27T22:03:20.228Z,10.90
2023-04-27T22:06:21.838Z,10.92
2023-04-27T22:09:23.185Z,10.96
2023-04-27T22:12:24.527Z,10.93
2023-04-27T22:15:26.319Z,10.82
2023-04-27T22:18:27.668Z,10.84
2023-04-27T22:21:29.079Z,10.80
2023-04-27T22:24:30.472Z,10.79
2023-04-27T22:27:42.030Z,10.74
2023-04-27T22:30:46.318Z,10.70
2023-04-27T22:33:47.710Z,10.69
2023-04-27T22:36:49.176Z,10.63
2023-04-27T22:39:50.542Z,10.62
2023-04-27T22:42:52.754Z,10.63
2023-04-27T22:45:54.164Z,10.61
2023-04-27T22:48:55.526Z,10.58
2023-04-27T22:51:57.645Z,10.62
2023-04-27T22:55:01.689Z,10.57
2023-04-27T22:58:03.075Z,10.47
2023-04-27T23:01:04.564Z,10.46
2023-04-27T23:04:06.096Z,10.39
2023-04-27T23:07:09.633Z,10.31
2023-04-27T23:10:11.125Z,10.24
2023-04-27T23:13:12.876Z,10.15
2023-04-27T23:16:14.821Z,10.14
2023-04-27T23:19:16.335Z,10.14
2023-04-27T23:22:17.675Z,10.20
2023-04-27T23:25:19.133Z,10.17
2023-04-27T23:28:20.819Z,10.24
2023-04-27T23:31:23.349Z,10.23
2023-04-27T23:34:25.180Z,10.21
2023-04-27T23:37:26.545Z,10.22
2023-04-27T23:40:27.927Z,10.23
2023-04-27T23:43:29.344Z,10.20
2023-04-27T23:46:30.725Z,10.23
2023-04-27T23:49:32.170Z,10.25
2023-04-27T23:52:33.571Z,10.22
2023-04-27T23:55:35.685Z,10.18
2023-04-27T23:58:37.036Z,10.18
